TimeMST,TemperatureF,Dew PointF,Humidity,Sea Level PressureIn,VisibilityMPH,Wind Direction,Wind SpeedMPH,Gust SpeedMPH,PrecipitationIn,Events,Conditions,WindDirDegrees,DateUTC
12:51 AM,93.9,45.0,18,29.59,10.0,NNW,3.5,-,N/A,,Mostly Cloudy,340,2013-09-18 07:51:00
1:51 AM,91.9,48.0,22,29.59,10.0,ENE,5.8,-,N/A,,Mostly Cloudy,70,2013-09-18 08:51:00
2:51 AM,89.1,51.1,27,29.59,10.0,ESE,4.6,-,N/A,,Mostly Cloudy,110,2013-09-18 09:51:00
3:51 AM,89.1,50.0,26,29.59,10.0,East,5.8,-,N/A,,Mostly Cloudy,80,2013-09-18 10:51:00
4:51 AM,87.1,50.0,28,29.60,10.0,ESE,8.1,-,N/A,,Scattered Clouds,120,2013-09-18 11:51:00
5:51 AM,84.9,51.1,31,29.61,10.0,East,10.4,-,N/A,,Scattered Clouds,100,2013-09-18 12:51:00
6:51 AM,84.0,52.0,33,29.63,10.0,ESE,10.4,-,N/A,,Mostly Cloudy,110,2013-09-18 13:51:00
7:51 AM,88.0,48.9,26,29.65,10.0,East,6.9,-,N/A,,Mostly Cloudy,100,2013-09-18 14:51:00
8:51 AM,91.9,48.0,22,29.66,10.0,ESE,6.9,-,N/A,,Scattered Clouds,120,2013-09-18 15:51:00
9:51 AM,93.9,44.1,18,29.66,10.0,SE,11.5,-,N/A,,Scattered Clouds,140,2013-09-18 16:51:00
10:51 AM,100.0,39.0,12,29.65,10.0,Variable,5.8,-,N/A,,Partly Cloudy,0,2013-09-18 17:51:00
11:51 AM,102.9,28.0,7,29.64,10.0,Variable,6.9,-,N/A,,Partly Cloudy,0,2013-09-18 18:51:00
12:51 PM,104.0,28.9,7,29.62,10.0,SSE,12.7,-,N/A,,Partly Cloudy,160,2013-09-18 19:51:00
1:51 PM,102.9,27.0,7,29.59,10.0,West,3.5,-,N/A,,Partly Cloudy,280,2013-09-18 20:51:00
2:51 PM,102.9,24.1,6,29.56,10.0,WNW,10.4,-,N/A,,Partly Cloudy,300,2013-09-18 21:51:00
3:51 PM,104.0,24.1,6,29.55,10.0,WSW,11.5,24.2,N/A,,Partly Cloudy,250,2013-09-18 22:51:00
4:51 PM,102.9,26.1,7,29.54,10.0,South,11.5,-,N/A,,Partly Cloudy,190,2013-09-18 23:51:00
5:51 PM,102.0,30.9,8,29.54,10.0,WNW,10.4,-,N/A,,Clear,290,2013-09-19 00:51:00
6:51 PM,99.0,35.1,11,29.55,10.0,WNW,17.3,-,N/A,,Clear,290,2013-09-19 01:51:00
7:51 PM,96.1,35.1,12,29.58,10.0,WNW,13.8,-,N/A,,Clear,290,2013-09-19 02:51:00
8:51 PM,95.0,37.0,13,29.61,10.0,West,12.7,-,N/A,,Clear,270,2013-09-19 03:51:00
9:51 PM,93.0,37.9,15,29.61,10.0,WNW,9.2,-,N/A,,Clear,300,2013-09-19 04:51:00
10:51 PM,91.0,39.0,16,29.62,10.0,North,4.6,-,N/A,,Clear,360,2013-09-19 05:51:00
11:51 PM,90.0,37.9,16,29.62,10.0,NNW,4.6,-,N/A,,Clear,330,2013-09-19 06:51:00